createdAt,value
2017-08-12T00:00:46.388Z,77.30
2017-08-12T00:03:13.899Z,77.40
2017-08-12T00:05:42.217Z,77.60
2017-08-12T00:08:10.118Z,77.60
2017-08-12T00:10:37.658Z,77.60
2017-08-12T00:13:05.223Z,77.70
2017-08-12T00:15:33.092Z,77.70
2017-08-12T00:18:00.681Z,77.60
2017-08-12T00:20:28.219Z,77.50
2017-08-12T00:22:56.082Z,77.10
2017-08-12T00:25:23.605Z,76.90
2017-08-12T00:27:51.141Z,76.80
2017-08-12T00:30:19.800Z,76.60
2017-08-12T00:32:57.648Z,76.60
2017-08-12T00:35:25.490Z,76.50
2017-08-12T00:37:53.028Z,76.10
2017-08-12T00:40:20.550Z,75.70
2017-08-12T00:42:48.400Z,75.20
2017-08-12T00:45:16.709Z,75.10
2017-08-12T00:47:44.238Z,75.10
2017-08-12T00:50:12.160Z,75.30
2017-08-12T00:52:39.679Z,75.10
2017-08-12T00:55:07.223Z,75.00
2017-08-12T00:57:35.057Z,75.10
2017-08-12T01:00:02.598Z,74.90
2017-08-12T01:02:30.129Z,74.90
2017-08-12T01:04:58.031Z,74.60
2017-08-12T01:07:25.575Z,74.80
2017-08-12T01:09:53.112Z,74.60
2017-08-12T01:12:21.008Z,74.70
2017-08-12T01:14:48.560Z,74.80
2017-08-12T01:17:19.175Z,74.80
2017-08-12T01:19:47.060Z,74.80
2017-08-12T01:22:14.594Z,74.90
2017-08-12T01:24:43.090Z,74.90
2017-08-12T01:27:10.967Z,74.80
2017-08-12T01:29:38.477Z,74.70
2017-08-12T01:32:06.040Z,74.40
2017-08-12T01:34:34.095Z,74.40
2017-08-12T01:37:01.627Z,74.40
2017-08-12T01:39:29.184Z,74.30
2017-08-12T01:41:57.129Z,74.10
2017-08-12T01:44:36.623Z,73.80
2017-08-12T01:47:04.488Z,73.40
2017-08-12T01:49:32.171Z,73.40
2017-08-12T01:51:59.685Z,73.40
2017-08-12T01:54:27.582Z,73.20
2017-08-12T01:56:55.108Z,73.10
2017-08-12T01:59:22.657Z,73.10
2017-08-12T02:01:50.450Z,72.90
2017-08-12T02:04:17.968Z,72.80
2017-08-12T02:06:45.479Z,72.70
2017-08-12T02:09:13.345Z,72.80
2017-08-12T02:11:41.839Z,72.90
2017-08-12T02:14:09.397Z,73.00
2017-08-12T02:16:37.262Z,73.20
2017-08-12T02:19:04.821Z,74.10
2017-08-12T02:21:37.313Z,73.40
2017-08-12T02:24:04.848Z,73.50
2017-08-12T02:26:40.267Z,73.60
2017-08-12T02:29:07.784Z,73.70
2017-08-12T02:31:36.170Z,74.20
2017-08-12T02:34:04.056Z,74.20
2017-08-12T02:36:31.575Z,74.30
2017-08-12T02:38:59.089Z,74.50
2017-08-12T02:41:27.013Z,74.60
2017-08-12T02:43:54.591Z,74.70
2017-08-12T02:46:22.191Z,74.80
2017-08-12T02:48:50.079Z,74.80
2017-08-12T02:51:17.606Z,74.80
2017-08-12T02:53:45.141Z,75.00
2017-08-12T02:56:13.809Z,75.20
2017-08-12T02:58:41.983Z,75.20
2017-08-12T03:01:21.127Z,75.50
2017-08-12T03:03:48.636Z,75.60
2017-08-12T03:06:16.156Z,75.70
2017-08-12T03:08:44.791Z,75.90
2017-08-12T03:11:12.328Z,75.90
2017-08-12T03:13:39.866Z,76.10
2017-08-12T03:16:07.779Z,76.10
2017-08-12T03:18:35.315Z,76.10
2017-08-12T03:21:02.843Z,76.20
2017-08-12T03:23:31.508Z,76.80
2017-08-12T03:25:59.038Z,76.10
2017-08-12T03:28:26.577Z,75.80
2017-08-12T03:30:54.505Z,75.90
2017-08-12T03:33:22.029Z,75.80
2017-08-12T03:35:49.556Z,75.70
2017-08-12T03:38:23.645Z,75.80
2017-08-12T03:40:51.182Z,75.70
2017-08-12T03:43:18.723Z,75.60
2017-08-12T03:45:51.937Z,75.70
2017-08-12T03:48:19.463Z,75.70
2017-08-12T03:50:47.023Z,75.70
2017-08-12T03:53:15.000Z,75.80
2017-08-12T03:55:47.129Z,76.00
2017-08-12T03:58:15.785Z,76.00
2017-08-12T04:00:43.355Z,76.00
2017-08-12T04:03:10.915Z,75.70
2017-08-12T04:05:45.768Z,75.70
2017-08-12T04:08:13.372Z,75.20
2017-08-12T04:10:40.948Z,75.00
2017-08-12T04:13:25.505Z,74.90
2017-08-12T04:15:53.037Z,74.80
2017-08-12T04:18:20.561Z,74.80
2017-08-12T04:20:49.210Z,74.70
2017-08-12T04:23:16.759Z,74.70
2017-08-12T04:25:44.303Z,74.70
2017-08-12T04:28:12.186Z,74.70
2017-08-12T04:30:39.718Z,74.50
2017-08-12T04:33:07.280Z,74.70
2017-08-12T04:35:35.199Z,74.60
2017-08-12T04:38:02.811Z,74.60
2017-08-12T04:40:30.336Z,74.60
2017-08-12T04:42:58.184Z,74.50
2017-08-12T04:45:25.714Z,74.60
2017-08-12T04:47:53.261Z,74.50
2017-08-12T04:50:21.102Z,74.60
2017-08-12T04:52:49.394Z,74.50
2017-08-12T04:55:19.573Z,74.40
2017-08-12T04:57:47.428Z,74.40
2017-08-12T05:00:14.955Z,74.50
2017-08-12T05:02:42.502Z,74.60
2017-08-12T05:05:12.310Z,74.80
2017-08-12T05:07:40.641Z,75.00
2017-08-12T05:10:08.183Z,75.00
2017-08-12T05:12:36.080Z,75.00
2017-08-12T05:15:03.662Z,75.00
2017-08-12T05:17:31.218Z,75.00
2017-08-12T05:19:59.165Z,75.00
2017-08-12T05:22:26.688Z,74.80
2017-08-12T05:24:54.221Z,74.60
2017-08-12T05:27:22.977Z,74.70
2017-08-12T05:29:51.280Z,74.00
2017-08-12T05:32:27.201Z,74.40
2017-08-12T05:34:54.715Z,73.60
2017-08-12T05:37:22.237Z,73.70
2017-08-12T05:39:50.070Z,73.60
2017-08-12T05:42:27.324Z,73.40
2017-08-12T05:44:56.057Z,73.00
2017-08-12T05:47:23.584Z,73.00
2017-08-12T05:49:51.124Z,72.90
2017-08-12T05:52:24.663Z,72.40
2017-08-12T05:54:52.179Z,72.40
2017-08-12T05:57:22.440Z,72.10
2017-08-12T05:59:50.342Z,72.10
2017-08-12T06:02:17.886Z,72.50
2017-08-12T06:04:45.455Z,71.50
2017-08-12T06:07:13.327Z,71.30
2017-08-12T06:09:40.857Z,71.10
2017-08-12T06:12:08.417Z,70.90
2017-08-12T06:14:36.434Z,70.50
2017-08-12T06:17:03.997Z,70.20
2017-08-12T06:19:31.539Z,70.10
2017-08-12T06:21:59.392Z,69.90
2017-08-12T06:24:26.919Z,69.70
2017-08-12T06:26:54.479Z,69.60
2017-08-12T06:29:22.281Z,69.60
2017-08-12T06:31:51.747Z,69.50
2017-08-12T06:34:19.315Z,69.50
2017-08-12T06:36:47.249Z,69.30
2017-08-12T06:39:14.800Z,68.50
2017-08-12T06:41:44.349Z,68.30
2017-08-12T06:44:12.992Z,67.50
2017-08-12T06:46:40.544Z,67.50
2017-08-12T06:49:11.369Z,67.20
2017-08-12T06:51:39.245Z,67.50
2017-08-12T06:54:06.780Z,67.30
2017-08-12T06:56:34.382Z,67.00
2017-08-12T06:59:02.222Z,66.90
2017-08-12T07:01:29.743Z,67.00
2017-08-12T07:03:58.077Z,67.10
2017-08-12T07:06:25.902Z,67.10
2017-08-12T07:11:52.184Z,66.70
2017-08-12T07:14:19.854Z,66.50
2017-08-12T07:16:47.428Z,66.80
2017-08-12T07:19:15.591Z,65.90
2017-08-12T07:21:43.154Z,66.00
2017-08-12T07:24:10.671Z,65.30
2017-08-12T07:26:44.706Z,65.00
2017-08-12T07:29:12.217Z,65.10
2017-08-12T07:31:39.786Z,65.50
2017-08-12T07:34:08.433Z,64.30
2017-08-12T07:36:41.949Z,64.30
2017-08-12T07:39:09.789Z,64.60
2017-08-12T07:41:37.329Z,63.60
2017-08-12T07:44:04.845Z,63.50
2017-08-12T07:46:32.801Z,63.40
2017-08-12T07:49:01.241Z,62.80
2017-08-12T07:51:32.430Z,63.00
2017-08-12T07:53:59.968Z,62.20
2017-08-12T07:56:27.523Z,61.40
2017-08-12T07:58:55.396Z,60.80
2017-08-12T08:01:22.937Z,60.50
2017-08-12T08:03:50.458Z,60.70
2017-08-12T08:06:18.399Z,60.60
2017-08-12T08:08:49.552Z,60.40
2017-08-12T08:11:17.083Z,60.30
2017-08-12T08:13:44.976Z,60.30
2017-08-12T08:16:12.517Z,60.50
2017-08-12T08:18:40.042Z,60.00
2017-08-12T08:21:07.968Z,59.70
2017-08-12T08:23:35.484Z,59.60
2017-08-12T08:26:02.986Z,59.40
2017-08-12T08:28:30.846Z,58.90
2017-08-12T08:30:58.383Z,58.60
2017-08-12T08:33:35.339Z,57.90
2017-08-12T08:36:03.794Z,57.50
2017-08-12T08:38:40.245Z,57.60
2017-08-12T08:41:08.299Z,57.70
2017-08-12T08:43:37.771Z,58.10
2017-08-12T08:46:05.681Z,57.40
2017-08-12T08:48:37.574Z,57.00
2017-08-12T08:51:06.151Z,57.10
2017-08-12T08:53:33.677Z,57.10
2017-08-12T08:56:03.081Z,56.80
2017-08-12T08:58:31.044Z,56.60
2017-08-12T09:00:59.452Z,56.60
2017-08-12T09:03:26.951Z,56.70
2017-08-12T09:11:35.346Z,55.00
2017-08-12T09:14:02.990Z,54.60
2017-08-12T09:16:30.538Z,54.30
2017-08-12T09:18:58.444Z,54.10
2017-08-12T09:21:26.036Z,54.30
2017-08-12T09:23:53.688Z,54.80
2017-08-12T09:26:21.479Z,54.20
2017-08-12T09:28:49.806Z,53.60
2017-08-12T09:31:17.336Z,53.60
2017-08-12T09:33:45.291Z,53.50
2017-08-12T09:36:13.586Z,52.70
2017-08-12T09:38:41.158Z,52.50
2017-08-12T09:41:09.205Z,52.80
2017-08-12T09:43:36.734Z,52.80
2017-08-12T09:46:04.246Z,53.00
2017-08-12T09:48:32.081Z,52.90
2017-08-12T09:51:00.376Z,52.70
2017-08-12T09:53:27.908Z,52.90
2017-08-12T09:55:56.597Z,52.50
2017-08-12T09:58:24.149Z,52.90
2017-08-12T10:00:51.704Z,52.70
2017-08-12T10:03:20.165Z,52.60
2017-08-12T10:05:47.800Z,52.60
2017-08-12T10:08:16.125Z,52.80
2017-08-12T10:10:43.968Z,52.90
2017-08-12T10:13:11.483Z,52.50
2017-08-12T10:15:39.794Z,52.50
2017-08-12T10:18:07.650Z,52.50
2017-08-12T10:20:35.170Z,52.70
2017-08-12T10:23:02.724Z,52.80
2017-08-12T10:25:30.517Z,53.00
2017-08-12T10:27:58.064Z,52.90
2017-08-12T10:30:25.626Z,52.70
2017-08-12T10:32:54.372Z,51.40
2017-08-12T10:35:21.884Z,52.40
2017-08-12T10:37:50.231Z,51.00
2017-08-12T10:40:18.243Z,51.00
2017-08-12T10:42:46.533Z,50.80
2017-08-12T10:45:14.064Z,50.80
2017-08-12T10:47:43.126Z,50.90
2017-08-12T10:50:10.670Z,50.80
2017-08-12T10:52:38.215Z,50.90
2017-08-12T10:55:06.045Z,51.10
2017-08-12T10:57:33.557Z,51.00
2017-08-12T11:00:01.093Z,50.90
2017-08-12T11:02:28.968Z,50.60
2017-08-12T11:04:56.522Z,50.20
2017-08-12T11:07:24.329Z,49.80
2017-08-12T11:09:52.189Z,49.70
2017-08-12T11:12:19.723Z,49.50
2017-08-12T11:14:47.284Z,49.40
2017-08-12T11:17:15.188Z,49.80
2017-08-12T11:19:42.734Z,50.10
2017-08-12T11:22:10.269Z,50.00
2017-08-12T11:24:38.109Z,50.00
2017-08-12T11:27:06.403Z,49.40
2017-08-12T11:29:33.943Z,49.30
2017-08-12T11:32:01.864Z,49.70
2017-08-12T11:34:29.405Z,50.10
2017-08-12T11:36:56.950Z,49.40
2017-08-12T11:39:24.878Z,48.80
2017-08-12T11:41:52.382Z,48.50
2017-08-12T11:44:19.908Z,48.00
2017-08-12T11:46:47.753Z,47.50
2017-08-12T11:49:15.287Z,46.50
2017-08-12T11:51:42.827Z,45.60
2017-08-12T11:54:11.561Z,43.90
2017-08-12T11:56:39.106Z,43.70
2017-08-12T11:59:06.632Z,42.40
2017-08-12T12:01:34.533Z,41.20
2017-08-12T12:04:02.065Z,41.00
2017-08-12T12:06:29.610Z,41.50
2017-08-12T12:08:58.247Z,42.60
2017-08-12T12:11:25.778Z,42.60
2017-08-12T12:13:53.299Z,43.20
2017-08-12T12:16:20.865Z,43.30
2017-08-12T12:18:48.398Z,43.40
2017-08-12T12:21:16.266Z,43.70
2017-08-12T12:23:43.788Z,44.20
2017-08-12T12:26:11.316Z,44.60
2017-08-12T12:28:39.147Z,44.60
2017-08-12T12:31:06.698Z,45.00
2017-08-12T12:33:34.220Z,45.50
2017-08-12T12:36:02.132Z,45.60
2017-08-12T12:38:29.696Z,45.80
2017-08-12T12:40:57.235Z,45.90
2017-08-12T12:43:25.229Z,45.90
2017-08-12T12:45:56.726Z,46.20
2017-08-12T12:48:24.266Z,46.40
2017-08-12T12:50:52.223Z,46.80
2017-08-12T12:53:19.783Z,47.10
2017-08-12T12:55:47.324Z,47.40
2017-08-12T12:58:15.149Z,47.30
2017-08-12T13:00:42.682Z,47.20
2017-08-12T13:03:10.233Z,47.30
2017-08-12T13:05:38.059Z,47.40
2017-08-12T13:08:05.584Z,47.40
2017-08-12T13:10:33.868Z,46.20
2017-08-12T13:13:02.524Z,45.60
2017-08-12T13:15:30.812Z,46.10
2017-08-12T13:17:58.353Z,45.80
2017-08-12T13:20:26.244Z,45.30
2017-08-12T13:22:53.781Z,44.30
2017-08-12T13:25:21.300Z,43.60
2017-08-12T13:27:49.205Z,43.40
2017-08-12T13:30:16.749Z,43.20
2017-08-12T13:32:44.278Z,43.00
2017-08-12T13:35:12.212Z,43.10
2017-08-12T13:37:39.775Z,43.00
2017-08-12T13:40:07.287Z,43.10
2017-08-12T13:42:35.173Z,43.10
2017-08-12T13:45:02.708Z,43.40
2017-08-12T13:47:30.292Z,43.80
2017-08-12T13:49:59.990Z,44.10
2017-08-12T13:52:27.509Z,44.50
2017-08-12T13:54:55.783Z,45.70
2017-08-12T13:57:23.603Z,45.70
2017-08-12T13:59:51.139Z,46.20
2017-08-12T14:02:18.706Z,46.70
2017-08-12T14:04:46.620Z,48.00
2017-08-12T14:07:14.147Z,47.70
2017-08-12T14:09:41.663Z,45.00
2017-08-12T14:12:10.223Z,42.50
2017-08-12T14:14:37.762Z,42.70
2017-08-12T14:17:05.297Z,42.50
2017-08-12T14:19:33.126Z,42.50
2017-08-12T14:22:01.456Z,43.10
2017-08-12T14:24:28.983Z,43.10
2017-08-12T14:26:57.577Z,43.20
2017-08-12T14:29:25.863Z,42.90
2017-08-12T14:31:53.392Z,42.90
2017-08-12T14:34:21.368Z,41.60
2017-08-12T14:36:49.645Z,39.70
2017-08-12T14:39:17.951Z,39.20
2017-08-12T14:41:45.971Z,38.40
2017-08-12T14:44:13.530Z,37.30
2017-08-12T14:46:41.059Z,35.80
2017-08-12T14:49:08.949Z,35.50
2017-08-12T14:51:36.493Z,35.80
2017-08-12T14:54:04.016Z,36.00
2017-08-12T14:56:31.832Z,35.20
2017-08-12T14:58:59.347Z,35.20
2017-08-12T15:01:26.893Z,35.10
2017-08-12T15:03:55.502Z,35.20
2017-08-12T15:06:24.950Z,35.20
2017-08-12T15:08:52.450Z,35.10
2017-08-12T15:11:21.049Z,35.80
2017-08-12T15:13:48.577Z,35.80
2017-08-12T15:16:16.888Z,36.70
2017-08-12T15:18:44.884Z,36.70
2017-08-12T15:21:12.406Z,37.00
2017-08-12T15:23:39.941Z,36.90
2017-08-12T15:26:07.872Z,36.20
2017-08-12T15:28:35.405Z,36.20
2017-08-12T15:31:02.964Z,36.40
2017-08-12T15:33:30.816Z,36.80
2017-08-12T15:35:58.344Z,37.60
2017-08-12T15:38:25.870Z,37.80
2017-08-12T15:40:53.805Z,37.60
2017-08-12T15:43:22.083Z,37.40
2017-08-12T15:45:49.631Z,37.40
2017-08-12T15:48:18.272Z,38.20
2017-08-12T15:50:45.783Z,37.40
2017-08-12T15:53:14.082Z,36.70
2017-08-12T15:55:41.913Z,36.70
2017-08-12T15:58:09.433Z,36.20
2017-08-12T16:00:36.982Z,35.50
2017-08-12T16:03:04.861Z,35.40
2017-08-12T16:05:32.518Z,34.70
2017-08-12T16:08:00.047Z,34.30
2017-08-12T16:10:27.954Z,33.80
2017-08-12T16:12:55.472Z,33.10
2017-08-12T16:15:23.761Z,33.40
2017-08-12T16:17:51.666Z,33.40
2017-08-12T16:20:19.198Z,33.90
2017-08-12T16:22:46.736Z,34.60
2017-08-12T16:25:15.381Z,35.40
2017-08-12T16:27:42.930Z,35.40
2017-08-12T16:30:10.595Z,35.50
2017-08-12T16:32:38.547Z,35.50
2017-08-12T16:35:06.046Z,35.20
2017-08-12T16:37:33.591Z,35.10
2017-08-12T16:40:01.569Z,34.70
2017-08-12T16:42:29.082Z,34.50
2017-08-12T16:44:56.610Z,34.70
2017-08-12T16:47:24.463Z,34.60
2017-08-12T16:49:52.098Z,34.50
2017-08-12T16:52:19.630Z,34.20
2017-08-12T16:54:47.549Z,34.30
2017-08-12T16:57:15.101Z,34.90
2017-08-12T16:59:42.669Z,35.40
2017-08-12T17:02:10.617Z,35.90
2017-08-12T17:04:38.169Z,36.10
2017-08-12T17:07:05.709Z,36.40
2017-08-12T17:09:33.560Z,37.00
2017-08-12T17:12:01.832Z,37.70
2017-08-12T17:14:29.490Z,37.80
2017-08-12T17:16:57.319Z,38.40
2017-08-12T17:19:24.860Z,38.90
2017-08-12T17:21:52.373Z,39.40
2017-08-12T17:24:20.218Z,40.00
2017-08-12T17:26:47.744Z,40.50
2017-08-12T17:29:15.273Z,40.80
2017-08-12T17:31:43.857Z,41.60
2017-08-12T17:34:11.398Z,41.60
2017-08-12T17:36:38.902Z,42.00
2017-08-12T17:39:06.794Z,42.30
2017-08-12T17:41:34.325Z,42.50
2017-08-12T17:44:01.861Z,42.70
2017-08-12T17:46:30.484Z,43.30
2017-08-12T17:48:58.009Z,43.20
2017-08-12T17:51:26.307Z,43.50
2017-08-12T17:53:54.222Z,43.70
2017-08-12T17:56:21.756Z,43.70
2017-08-12T17:58:49.303Z,43.70
2017-08-12T18:01:17.131Z,44.00
2017-08-12T18:03:44.683Z,44.30
2017-08-12T18:06:12.204Z,44.50
2017-08-12T18:08:40.053Z,44.80
2017-08-12T18:11:07.603Z,45.00
2017-08-12T18:13:35.115Z,45.30
2017-08-12T18:16:02.982Z,45.40
2017-08-12T18:18:30.541Z,45.50
2017-08-12T18:20:58.102Z,45.80
2017-08-12T18:23:25.931Z,46.00
2017-08-12T18:25:53.472Z,46.20
2017-08-12T18:28:21.808Z,46.70
2017-08-12T18:30:49.749Z,46.80
2017-08-12T18:33:17.298Z,47.10
2017-08-12T18:35:44.833Z,47.10
2017-08-12T18:38:13.483Z,47.10
2017-08-12T18:40:41.013Z,47.20
2017-08-12T18:43:08.531Z,47.30
2017-08-12T18:45:36.356Z,47.50
2017-08-12T18:48:03.899Z,47.60
2017-08-12T18:50:32.305Z,47.70
2017-08-12T18:53:00.164Z,47.90
2017-08-12T18:55:27.672Z,48.10
2017-08-12T18:57:55.218Z,48.20
2017-08-12T19:00:23.097Z,48.50
2017-08-12T19:02:51.400Z,49.20
2017-08-12T19:05:18.932Z,49.00
2017-08-12T19:07:47.516Z,49.90
2017-08-12T19:10:15.053Z,50.00
2017-08-12T19:12:42.568Z,50.30
2017-08-12T19:15:10.377Z,50.70
2017-08-12T19:17:37.928Z,51.10
2017-08-12T19:20:08.737Z,51.40
2017-08-12T19:22:36.752Z,51.70
2017-08-12T19:25:04.303Z,51.90
2017-08-12T19:27:31.825Z,52.10
2017-08-12T19:29:59.833Z,52.40
2017-08-12T19:32:27.379Z,52.80
2017-08-12T19:34:54.927Z,52.90
2017-08-12T19:37:22.753Z,53.10
2017-08-12T19:39:50.267Z,53.30
2017-08-12T19:42:17.783Z,53.60
2017-08-12T19:44:46.371Z,54.00
2017-08-12T19:47:14.669Z,54.20
2017-08-12T19:49:42.198Z,54.30
2017-08-12T19:52:10.834Z,54.90
2017-08-12T19:54:38.404Z,54.90
2017-08-12T19:57:05.915Z,55.10
2017-08-12T19:59:34.480Z,55.80
2017-08-12T20:02:02.039Z,55.80
2017-08-12T20:04:30.331Z,56.90
2017-08-12T20:06:58.258Z,56.30
2017-08-12T20:09:25.807Z,56.70
2017-08-12T20:11:53.341Z,56.90
2017-08-12T20:14:22.106Z,57.20
2017-08-12T20:16:50.378Z,57.70
2017-08-12T20:19:17.958Z,57.80
2017-08-12T20:21:45.893Z,58.10
2017-08-12T20:24:13.436Z,58.40
2017-08-12T20:26:40.972Z,58.70
2017-08-12T20:29:08.888Z,58.90
2017-08-12T20:31:36.427Z,59.20
2017-08-12T20:34:03.985Z,59.40
2017-08-12T20:36:31.840Z,59.70
2017-08-12T20:38:59.412Z,59.90
2017-08-12T20:41:26.943Z,60.10
2017-08-12T20:43:54.810Z,60.40
2017-08-12T20:46:22.373Z,60.90
2017-08-12T20:48:49.918Z,60.90
2017-08-12T20:51:17.742Z,61.30
2017-08-12T20:53:45.264Z,61.40
2017-08-12T20:56:12.803Z,61.50
2017-08-12T20:58:40.729Z,61.50
2017-08-12T21:01:08.295Z,61.60
2017-08-12T21:03:35.811Z,61.60
2017-08-12T21:06:03.631Z,61.90
2017-08-12T21:08:31.185Z,62.00
2017-08-12T21:10:58.710Z,62.00
2017-08-12T21:13:26.649Z,62.20
2017-08-12T21:15:54.944Z,62.30
2017-08-12T21:18:22.472Z,62.30
2017-08-12T21:20:51.111Z,62.50
2017-08-12T21:23:18.650Z,62.40
2017-08-12T21:25:46.210Z,62.40
2017-08-12T21:28:14.016Z,62.60
2017-08-12T21:30:41.538Z,62.70
2017-08-12T21:33:09.061Z,62.60
2017-08-12T21:35:36.936Z,62.60
2017-08-12T21:38:05.231Z,62.60
2017-08-12T21:40:32.747Z,62.50
2017-08-12T21:43:00.710Z,62.60
2017-08-12T21:45:28.231Z,62.70
2017-08-12T21:47:55.754Z,62.80
2017-08-12T21:50:24.533Z,63.60
2017-08-12T21:52:52.064Z,62.90
2017-08-12T21:55:19.584Z,62.90
2017-08-12T21:57:47.502Z,63.00
2017-08-12T22:00:15.013Z,63.10
2017-08-12T22:02:42.547Z,63.00
2017-08-12T22:05:11.120Z,63.00
2017-08-12T22:07:38.650Z,63.80
2017-08-12T22:10:06.168Z,63.00
2017-08-12T22:12:34.818Z,63.00
2017-08-12T22:15:02.325Z,63.00
2017-08-12T22:17:29.864Z,63.10
2017-08-12T22:19:57.914Z,63.10
2017-08-12T22:22:25.442Z,63.20
2017-08-12T22:24:52.976Z,63.40
2017-08-12T22:27:20.871Z,63.50
2017-08-12T22:29:48.393Z,63.50
2017-08-12T22:32:16.685Z,63.40
2017-08-12T22:34:44.593Z,63.40
2017-08-12T22:37:12.116Z,63.40
2017-08-12T22:39:39.634Z,63.50
2017-08-12T22:42:07.470Z,63.50
2017-08-12T22:44:34.970Z,63.40
2017-08-12T22:47:03.250Z,63.80
2017-08-12T22:49:31.155Z,63.40
2017-08-12T22:51:58.676Z,63.50
2017-08-12T22:54:26.205Z,63.70
2017-08-12T22:56:54.071Z,63.80
2017-08-12T22:59:21.629Z,63.80
2017-08-12T23:01:49.134Z,64.00
2017-08-12T23:04:17.727Z,64.20
2017-08-12T23:06:46.029Z,64.20
2017-08-12T23:09:13.562Z,64.20
2017-08-12T23:11:41.379Z,64.40
2017-08-12T23:14:08.906Z,64.40
2017-08-12T23:16:36.426Z,64.40
2017-08-12T23:19:04.265Z,64.50
2017-08-12T23:21:31.785Z,64.60
2017-08-12T23:23:59.290Z,64.60
2017-08-12T23:26:27.140Z,64.60
2017-08-12T23:28:54.666Z,64.60
2017-08-12T23:31:22.953Z,64.60
2017-08-12T23:33:50.856Z,64.60
2017-08-12T23:36:18.371Z,64.70
2017-08-12T23:38:45.898Z,64.70
2017-08-12T23:41:13.735Z,64.90
2017-08-12T23:43:41.246Z,65.10
2017-08-12T23:46:09.544Z,65.30
2017-08-12T23:48:37.437Z,65.30
2017-08-12T23:51:04.949Z,65.40
2017-08-12T23:53:32.465Z,65.50
2017-08-12T23:56:00.329Z,65.60
2017-08-12T23:58:27.856Z,65.60
